sensor_id;sensor_type;location;lat;lon;timestamp;P1;durP1;ratioP1;P2;durP2;ratioP2
7571;SDS011;3827;49.928;8.548;2023-09-19T00:00:20;1.35;;;0.93;;
7571;SDS011;3827;49.928;8.548;2023-09-19T00:02:53;1.83;;;1.13;;
7571;SDS011;3827;49.928;8.548;2023-09-19T00:05:22;2.15;;;1.30;;
7571;SDS011;3827;49.928;8.548;2023-09-19T00:07:52;1.60;;;1.08;;
7571;SDS011;3827;49.928;8.548;2023-09-19T00:10:20;2.45;;;1.35;;
7571;SDS011;3827;49.928;8.548;2023-09-19T00:12:49;1.67;;;1.10;;
7571;SDS011;3827;49.928;8.548;2023-09-19T00:15:16;1.30;;;1.20;;
7571;SDS011;3827;49.928;8.548;2023-09-19T00:17:45;1.20;;;1.08;;
7571;SDS011;3827;49.928;8.548;2023-09-19T00:20:12;1.15;;;1.00;;
7571;SDS011;3827;49.928;8.548;2023-09-19T00:22:42;1.20;;;1.10;;
7571;SDS011;3827;49.928;8.548;2023-09-19T00:25:09;1.17;;;1.08;;
7571;SDS011;3827;49.928;8.548;2023-09-19T00:27:37;2.00;;;1.15;;
7571;SDS011;3827;49.928;8.548;2023-09-19T00:30:07;1.80;;;1.10;;
7571;SDS011;3827;49.928;8.548;2023-09-19T00:32:39;1.15;;;1.00;;
7571;SDS011;3827;49.928;8.548;2023-09-19T00:35:07;1.65;;;1.00;;
7571;SDS011;3827;49.928;8.548;2023-09-19T00:37:35;1.15;;;1.10;;
7571;SDS011;3827;49.928;8.548;2023-09-19T00:40:02;1.70;;;0.98;;
7571;SDS011;3827;49.928;8.548;2023-09-19T00:42:30;1.20;;;1.10;;
7571;SDS011;3827;49.928;8.548;2023-09-19T00:44:58;1.40;;;1.10;;
7571;SDS011;3827;49.928;8.548;2023-09-19T00:47:28;1.50;;;1.10;;
7571;SDS011;3827;49.928;8.548;2023-09-19T00:49:55;1.40;;;1.30;;
7571;SDS011;3827;49.928;8.548;2023-09-19T00:52:24;1.40;;;1.05;;
7571;SDS011;3827;49.928;8.548;2023-09-19T00:54:52;1.20;;;1.10;;
7571;SDS011;3827;49.928;8.548;2023-09-19T00:57:20;1.20;;;1.13;;
7571;SDS011;3827;49.928;8.548;2023-09-19T00:59:47;1.90;;;1.02;;
7571;SDS011;3827;49.928;8.548;2023-09-19T01:02:16;1.25;;;1.10;;
7571;SDS011;3827;49.928;8.548;2023-09-19T01:04:42;1.63;;;1.00;;
7571;SDS011;3827;49.928;8.548;2023-09-19T01:07:10;1.80;;;1.40;;
7571;SDS011;3827;49.928;8.548;2023-09-19T01:09:39;1.58;;;1.20;;
7571;SDS011;3827;49.928;8.548;2023-09-19T01:12:06;1.40;;;1.27;;
7571;SDS011;3827;49.928;8.548;2023-09-19T01:14:37;2.03;;;1.20;;
7571;SDS011;3827;49.928;8.548;2023-09-19T01:17:09;1.40;;;1.30;;
7571;SDS011;3827;49.928;8.548;2023-09-19T01:19:59;1.90;;;1.40;;
7571;SDS011;3827;49.928;8.548;2023-09-19T01:22:41;1.23;;;1.13;;
7571;SDS011;3827;49.928;8.548;2023-09-19T01:25:33;1.45;;;1.00;;
7571;SDS011;3827;49.928;8.548;2023-09-19T01:28:31;2.75;;;1.23;;
7571;SDS011;3827;49.928;8.548;2023-09-19T01:31:03;1.40;;;1.25;;
7571;SDS011;3827;49.928;8.548;2023-09-19T01:36:28;1.33;;;1.20;;
7571;SDS011;3827;49.928;8.548;2023-09-19T01:38:59;1.45;;;1.10;;
7571;SDS011;3827;49.928;8.548;2023-09-19T01:41:39;1.20;;;1.10;;
7571;SDS011;3827;49.928;8.548;2023-09-19T01:44:15;1.80;;;1.20;;
7571;SDS011;3827;49.928;8.548;2023-09-19T01:46:49;1.10;;;1.00;;
7571;SDS011;3827;49.928;8.548;2023-09-19T01:49:18;3.15;;;1.30;;
7571;SDS011;3827;49.928;8.548;2023-09-19T01:51:56;1.40;;;1.20;;
7571;SDS011;3827;49.928;8.548;2023-09-19T01:54:31;2.15;;;1.20;;
7571;SDS011;3827;49.928;8.548;2023-09-19T01:57:04;2.22;;;1.30;;
7571;SDS011;3827;49.928;8.548;2023-09-19T01:59:37;2.00;;;1.50;;
7571;SDS011;3827;49.928;8.548;2023-09-19T02:02:10;2.15;;;1.60;;
7571;SDS011;3827;49.928;8.548;2023-09-19T02:04:39;1.85;;;1.60;;
7571;SDS011;3827;49.928;8.548;2023-09-19T02:07:06;2.40;;;1.40;;
7571;SDS011;3827;49.928;8.548;2023-09-19T02:09:33;1.77;;;1.45;;
7571;SDS011;3827;49.928;8.548;2023-09-19T02:12:03;2.60;;;1.70;;
7571;SDS011;3827;49.928;8.548;2023-09-19T02:14:31;1.70;;;1.60;;
7571;SDS011;3827;49.928;8.548;2023-09-19T02:16:57;2.45;;;1.63;;
7571;SDS011;3827;49.928;8.548;2023-09-19T02:19:26;2.08;;;1.77;;
7571;SDS011;3827;49.928;8.548;2023-09-19T02:21:54;2.72;;;1.75;;
7571;SDS011;3827;49.928;8.548;2023-09-19T02:24:21;1.60;;;1.47;;
7571;SDS011;3827;49.928;8.548;2023-09-19T02:26:51;1.60;;;1.50;;
7571;SDS011;3827;49.928;8.548;2023-09-19T02:29:19;1.75;;;1.60;;
7571;SDS011;3827;49.928;8.548;2023-09-19T02:31:47;1.73;;;1.52;;
7571;SDS011;3827;49.928;8.548;2023-09-19T02:34:14;1.90;;;1.70;;
7571;SDS011;3827;49.928;8.548;2023-09-19T02:36:42;3.20;;;1.70;;
7571;SDS011;3827;49.928;8.548;2023-09-19T02:39:10;2.15;;;1.95;;
7571;SDS011;3827;49.928;8.548;2023-09-19T02:41:37;2.92;;;1.60;;
7571;SDS011;3827;49.928;8.548;2023-09-19T02:44:06;2.22;;;1.88;;
7571;SDS011;3827;49.928;8.548;2023-09-19T02:46:33;3.03;;;1.60;;
7571;SDS011;3827;49.928;8.548;2023-09-19T02:49:01;2.20;;;1.58;;
7571;SDS011;3827;49.928;8.548;2023-09-19T02:51:30;2.77;;;1.53;;
7571;SDS011;3827;49.928;8.548;2023-09-19T02:53:58;2.05;;;1.85;;
7571;SDS011;3827;49.928;8.548;2023-09-19T02:56:25;3.20;;;1.70;;
7571;SDS011;3827;49.928;8.548;2023-09-19T02:58:52;2.95;;;1.80;;
7571;SDS011;3827;49.928;8.548;2023-09-19T03:01:20;1.87;;;1.70;;
7571;SDS011;3827;49.928;8.548;2023-09-19T03:03:47;1.52;;;1.42;;
7571;SDS011;3827;49.928;8.548;2023-09-19T03:06:14;2.67;;;1.83;;
7571;SDS011;3827;49.928;8.548;2023-09-19T03:08:45;1.73;;;1.60;;
7571;SDS011;3827;49.928;8.548;2023-09-19T03:11:15;1.90;;;1.70;;
7571;SDS011;3827;49.928;8.548;2023-09-19T03:13:46;2.50;;;1.70;;
7571;SDS011;3827;49.928;8.548;2023-09-19T03:16:16;1.70;;;1.60;;
7571;SDS011;3827;49.928;8.548;2023-09-19T03:18:44;1.70;;;1.60;;
7571;SDS011;3827;49.928;8.548;2023-09-19T03:21:12;1.80;;;1.50;;
7571;SDS011;3827;49.928;8.548;2023-09-19T03:23:39;1.85;;;1.60;;
7571;SDS011;3827;49.928;8.548;2023-09-19T03:26:06;2.10;;;1.30;;
7571;SDS011;3827;49.928;8.548;2023-09-19T03:28:34;1.90;;;1.50;;
7571;SDS011;3827;49.928;8.548;2023-09-19T03:31:02;1.55;;;1.45;;
7571;SDS011;3827;49.928;8.548;2023-09-19T03:33:29;1.70;;;1.50;;
7571;SDS011;3827;49.928;8.548;2023-09-19T03:35:58;1.70;;;1.50;;
7571;SDS011;3827;49.928;8.548;2023-09-19T03:38:26;1.48;;;1.38;;
7571;SDS011;3827;49.928;8.548;2023-09-19T03:40:53;1.40;;;1.30;;
7571;SDS011;3827;49.928;8.548;2023-09-19T03:43:20;1.60;;;1.50;;
7571;SDS011;3827;49.928;8.548;2023-09-19T03:45:48;2.08;;;1.40;;
7571;SDS011;3827;49.928;8.548;2023-09-19T03:48:16;1.60;;;1.50;;
7571;SDS011;3827;49.928;8.548;2023-09-19T03:50:42;1.70;;;1.52;;
7571;SDS011;3827;49.928;8.548;2023-09-19T03:53:09;2.10;;;1.55;;
7571;SDS011;3827;49.928;8.548;2023-09-19T03:55:37;1.58;;;1.40;;
7571;SDS011;3827;49.928;8.548;2023-09-19T03:58:04;1.70;;;1.60;;
7571;SDS011;3827;49.928;8.548;2023-09-19T04:00:30;1.70;;;1.60;;
7571;SDS011;3827;49.928;8.548;2023-09-19T04:02:59;2.15;;;1.70;;
7571;SDS011;3827;49.928;8.548;2023-09-19T04:05:30;2.00;;;1.73;;
7571;SDS011;3827;49.928;8.548;2023-09-19T04:07:57;2.90;;;1.80;;
7571;SDS011;3827;49.928;8.548;2023-09-19T04:10:24;1.70;;;1.60;;
7571;SDS011;3827;49.928;8.548;2023-09-19T04:12:51;3.05;;;1.98;;
7571;SDS011;3827;49.928;8.548;2023-09-19T04:15:18;2.47;;;2.10;;
7571;SDS011;3827;49.928;8.548;2023-09-19T04:17:47;1.92;;;1.70;;
7571;SDS011;3827;49.928;8.548;2023-09-19T04:20:15;2.10;;;1.90;;
7571;SDS011;3827;49.928;8.548;2023-09-19T04:22:43;2.20;;;1.95;;
7571;SDS011;3827;49.928;8.548;2023-09-19T04:25:10;2.17;;;1.80;;
7571;SDS011;3827;49.928;8.548;2023-09-19T04:27:37;2.45;;;1.73;;
7571;SDS011;3827;49.928;8.548;2023-09-19T04:30:05;1.98;;;1.65;;
7571;SDS011;3827;49.928;8.548;2023-09-19T04:32:36;2.78;;;1.73;;
7571;SDS011;3827;49.928;8.548;2023-09-19T04:35:05;2.10;;;1.90;;
7571;SDS011;3827;49.928;8.548;2023-09-19T04:37:35;2.08;;;1.67;;
7571;SDS011;3827;49.928;8.548;2023-09-19T04:40:06;3.17;;;1.77;;
7571;SDS011;3827;49.928;8.548;2023-09-19T04:42:38;1.67;;;1.58;;
7571;SDS011;3827;49.928;8.548;2023-09-19T04:45:07;8.40;;;2.20;;
7571;SDS011;3827;49.928;8.548;2023-09-19T04:47:35;1.98;;;1.60;;
7571;SDS011;3827;49.928;8.548;2023-09-19T04:50:03;2.25;;;1.80;;
7571;SDS011;3827;49.928;8.548;2023-09-19T04:52:32;1.85;;;1.65;;
7571;SDS011;3827;49.928;8.548;2023-09-19T04:55:00;2.22;;;1.83;;
7571;SDS011;3827;49.928;8.548;2023-09-19T04:57:27;2.80;;;1.55;;
7571;SDS011;3827;49.928;8.548;2023-09-19T04:59:54;1.90;;;1.52;;
7571;SDS011;3827;49.928;8.548;2023-09-19T05:02:21;2.50;;;1.58;;
7571;SDS011;3827;49.928;8.548;2023-09-19T05:04:47;3.17;;;2.00;;
7571;SDS011;3827;49.928;8.548;2023-09-19T05:07:14;1.95;;;1.65;;
7571;SDS011;3827;49.928;8.548;2023-09-19T05:09:42;2.10;;;1.60;;
7571;SDS011;3827;49.928;8.548;2023-09-19T05:12:10;2.85;;;1.70;;
7571;SDS011;3827;49.928;8.548;2023-09-19T05:14:37;3.70;;;2.50;;
7571;SDS011;3827;49.928;8.548;2023-09-19T05:17:05;1.95;;;1.67;;
7571;SDS011;3827;49.928;8.548;2023-09-19T05:19:32;2.10;;;1.90;;
7571;SDS011;3827;49.928;8.548;2023-09-19T05:22:00;2.67;;;2.47;;
7571;SDS011;3827;49.928;8.548;2023-09-19T05:24:29;3.60;;;2.10;;
7571;SDS011;3827;49.928;8.548;2023-09-19T05:26:56;2.67;;;1.98;;
7571;SDS011;3827;49.928;8.548;2023-09-19T05:29:24;4.80;;;3.70;;
7571;SDS011;3827;49.928;8.548;2023-09-19T05:31:51;3.50;;;2.87;;
7571;SDS011;3827;49.928;8.548;2023-09-19T05:34:19;4.63;;;3.70;;
7571;SDS011;3827;49.928;8.548;2023-09-19T05:36:46;5.37;;;3.07;;
7571;SDS011;3827;49.928;8.548;2023-09-19T05:39:14;3.85;;;3.22;;
7571;SDS011;3827;49.928;8.548;2023-09-19T05:41:41;4.53;;;3.30;;
7571;SDS011;3827;49.928;8.548;2023-09-19T05:44:07;4.15;;;3.47;;
7571;SDS011;3827;49.928;8.548;2023-09-19T05:46:35;3.97;;;3.30;;
7571;SDS011;3827;49.928;8.548;2023-09-19T05:49:02;3.42;;;3.13;;
7571;SDS011;3827;49.928;8.548;2023-09-19T05:51:29;3.05;;;2.75;;
7571;SDS011;3827;49.928;8.548;2023-09-19T05:53:56;4.18;;;3.10;;
7571;SDS011;3827;49.928;8.548;2023-09-19T05:56:23;5.85;;;4.78;;
7571;SDS011;3827;49.928;8.548;2023-09-19T05:58:49;4.75;;;2.85;;
7571;SDS011;3827;49.928;8.548;2023-09-19T06:01:18;2.42;;;2.22;;
7571;SDS011;3827;49.928;8.548;2023-09-19T06:03:46;3.13;;;2.50;;
7571;SDS011;3827;49.928;8.548;2023-09-19T06:06:13;2.75;;;2.55;;
7571;SDS011;3827;49.928;8.548;2023-09-19T06:08:40;2.40;;;2.17;;
7571;SDS011;3827;49.928;8.548;2023-09-19T06:11:09;2.40;;;2.15;;
7571;SDS011;3827;49.928;8.548;2023-09-19T06:13:36;2.95;;;2.00;;
7571;SDS011;3827;49.928;8.548;2023-09-19T06:16:04;3.85;;;2.50;;
7571;SDS011;3827;49.928;8.548;2023-09-19T06:18:31;2.90;;;2.25;;
7571;SDS011;3827;49.928;8.548;2023-09-19T06:21:00;3.40;;;2.50;;
7571;SDS011;3827;49.928;8.548;2023-09-19T06:23:30;2.60;;;2.20;;
7571;SDS011;3827;49.928;8.548;2023-09-19T06:25:57;2.95;;;2.33;;
7571;SDS011;3827;49.928;8.548;2023-09-19T06:28:24;2.90;;;2.43;;
7571;SDS011;3827;49.928;8.548;2023-09-19T06:30:53;2.75;;;2.20;;
7571;SDS011;3827;49.928;8.548;2023-09-19T06:33:20;2.67;;;1.90;;
7571;SDS011;3827;49.928;8.548;2023-09-19T06:35:47;2.20;;;2.00;;
7571;SDS011;3827;49.928;8.548;2023-09-19T06:38:19;2.90;;;1.90;;
7571;SDS011;3827;49.928;8.548;2023-09-19T06:40:46;2.05;;;1.70;;
7571;SDS011;3827;49.928;8.548;2023-09-19T06:43:13;3.05;;;1.98;;
7571;SDS011;3827;49.928;8.548;2023-09-19T06:45:39;1.65;;;1.55;;
7571;SDS011;3827;49.928;8.548;2023-09-19T06:48:07;1.98;;;1.77;;
7571;SDS011;3827;49.928;8.548;2023-09-19T06:50:35;3.50;;;2.00;;
7571;SDS011;3827;49.928;8.548;2023-09-19T06:53:02;1.60;;;1.50;;
7571;SDS011;3827;49.928;8.548;2023-09-19T06:55:30;1.90;;;1.50;;
7571;SDS011;3827;49.928;8.548;2023-09-19T06:57:57;3.35;;;2.10;;
7571;SDS011;3827;49.928;8.548;2023-09-19T07:00:24;2.78;;;2.45;;
7571;SDS011;3827;49.928;8.548;2023-09-19T07:02:57;2.25;;;1.80;;
7571;SDS011;3827;49.928;8.548;2023-09-19T07:05:26;3.07;;;2.80;;
7571;SDS011;3827;49.928;8.548;2023-09-19T07:07:53;2.67;;;1.75;;
7571;SDS011;3827;49.928;8.548;2023-09-19T07:10:21;2.95;;;1.23;;
7571;SDS011;3827;49.928;8.548;2023-09-19T07:12:55;2.33;;;1.90;;
7571;SDS011;3827;49.928;8.548;2023-09-19T07:15:23;2.30;;;1.80;;
7571;SDS011;3827;49.928;8.548;2023-09-19T07:17:50;2.97;;;1.85;;
7571;SDS011;3827;49.928;8.548;2023-09-19T07:20:18;2.90;;;1.80;;
7571;SDS011;3827;49.928;8.548;2023-09-19T07:22:45;2.88;;;1.90;;
7571;SDS011;3827;49.928;8.548;2023-09-19T07:25:12;2.60;;;1.70;;
7571;SDS011;3827;49.928;8.548;2023-09-19T07:27:40;3.85;;;1.95;;
7571;SDS011;3827;49.928;8.548;2023-09-19T07:30:08;3.55;;;1.70;;
7571;SDS011;3827;49.928;8.548;2023-09-19T07:32:36;3.00;;;1.80;;
7571;SDS011;3827;49.928;8.548;2023-09-19T07:35:04;2.03;;;1.87;;
7571;SDS011;3827;49.928;8.548;2023-09-19T07:37:31;2.43;;;1.40;;
7571;SDS011;3827;49.928;8.548;2023-09-19T07:39:58;2.22;;;1.55;;
7571;SDS011;3827;49.928;8.548;2023-09-19T07:42:25;2.25;;;1.60;;
7571;SDS011;3827;49.928;8.548;2023-09-19T07:44:52;2.13;;;1.58;;
7571;SDS011;3827;49.928;8.548;2023-09-19T07:47:21;3.17;;;1.60;;
7571;SDS011;3827;49.928;8.548;2023-09-19T07:49:47;2.13;;;1.52;;
7571;SDS011;3827;49.928;8.548;2023-09-19T07:52:14;2.80;;;1.40;;
7571;SDS011;3827;49.928;8.548;2023-09-19T07:54:41;3.13;;;1.45;;
7571;SDS011;3827;49.928;8.548;2023-09-19T07:57:09;1.92;;;1.40;;
7571;SDS011;3827;49.928;8.548;2023-09-19T07:59:37;1.80;;;1.23;;
7571;SDS011;3827;49.928;8.548;2023-09-19T08:02:06;3.67;;;1.52;;
7571;SDS011;3827;49.928;8.548;2023-09-19T08:04:36;3.38;;;1.38;;
7571;SDS011;3827;49.928;8.548;2023-09-19T08:07:02;3.37;;;1.13;;
7571;SDS011;3827;49.928;8.548;2023-09-19T08:09:30;1.85;;;1.23;;
7571;SDS011;3827;49.928;8.548;2023-09-19T08:11:59;1.33;;;1.00;;
7571;SDS011;3827;49.928;8.548;2023-09-19T08:14:29;2.40;;;1.45;;
7571;SDS011;3827;49.928;8.548;2023-09-19T08:16:56;2.65;;;1.30;;
7571;SDS011;3827;49.928;8.548;2023-09-19T08:19:24;3.08;;;1.10;;
7571;SDS011;3827;49.928;8.548;2023-09-19T08:21:54;1.35;;;1.00;;
7571;SDS011;3827;49.928;8.548;2023-09-19T08:24:23;1.52;;;1.08;;
7571;SDS011;3827;49.928;8.548;2023-09-19T08:26:52;2.72;;;1.20;;
7571;SDS011;3827;49.928;8.548;2023-09-19T08:29:20;2.08;;;1.05;;
7571;SDS011;3827;49.928;8.548;2023-09-19T08:31:46;1.35;;;1.00;;
7571;SDS011;3827;49.928;8.548;2023-09-19T08:34:14;3.65;;;1.30;;
7571;SDS011;3827;49.928;8.548;2023-09-19T08:36:41;2.30;;;1.00;;
7571;SDS011;3827;49.928;8.548;2023-09-19T08:39:10;2.30;;;1.20;;
7571;SDS011;3827;49.928;8.548;2023-09-19T08:41:38;1.10;;;1.00;;
7571;SDS011;3827;49.928;8.548;2023-09-19T08:44:05;3.75;;;2.20;;
7571;SDS011;3827;49.928;8.548;2023-09-19T08:46:33;2.22;;;1.20;;
7571;SDS011;3827;49.928;8.548;2023-09-19T08:49:03;2.58;;;1.33;;
7571;SDS011;3827;49.928;8.548;2023-09-19T08:51:35;2.88;;;1.40;;
7571;SDS011;3827;49.928;8.548;2023-09-19T08:54:12;2.60;;;0.98;;
7571;SDS011;3827;49.928;8.548;2023-09-19T08:56:47;2.80;;;1.25;;
7571;SDS011;3827;49.928;8.548;2023-09-19T08:59:15;1.73;;;1.30;;
7571;SDS011;3827;49.928;8.548;2023-09-19T09:01:43;3.53;;;1.17;;
7571;SDS011;3827;49.928;8.548;2023-09-19T09:04:11;2.47;;;1.00;;
7571;SDS011;3827;49.928;8.548;2023-09-19T09:06:38;2.70;;;1.10;;
7571;SDS011;3827;49.928;8.548;2023-09-19T09:09:08;2.80;;;1.20;;
7571;SDS011;3827;49.928;8.548;2023-09-19T09:11:37;0.90;;;0.90;;
7571;SDS011;3827;49.928;8.548;2023-09-19T09:14:05;3.72;;;1.27;;
7571;SDS011;3827;49.928;8.548;2023-09-19T09:16:33;3.70;;;1.20;;
7571;SDS011;3827;49.928;8.548;2023-09-19T09:19:00;1.95;;;1.20;;
7571;SDS011;3827;49.928;8.548;2023-09-19T09:21:27;4.53;;;1.30;;
7571;SDS011;3827;49.928;8.548;2023-09-19T09:23:54;2.00;;;1.20;;
7571;SDS011;3827;49.928;8.548;2023-09-19T09:29:10;2.67;;;1.20;;
7571;SDS011;3827;49.928;8.548;2023-09-19T09:31:37;2.55;;;1.15;;
7571;SDS011;3827;49.928;8.548;2023-09-19T09:34:04;2.95;;;1.48;;
7571;SDS011;3827;49.928;8.548;2023-09-19T09:36:35;3.30;;;1.20;;
7571;SDS011;3827;49.928;8.548;2023-09-19T09:39:03;1.53;;;1.20;;
7571;SDS011;3827;49.928;8.548;2023-09-19T09:41:41;2.40;;;1.27;;
7571;SDS011;3827;49.928;8.548;2023-09-19T09:44:13;3.33;;;1.50;;
7571;SDS011;3827;49.928;8.548;2023-09-19T09:46:42;2.60;;;1.00;;
7571;SDS011;3827;49.928;8.548;2023-09-19T09:49:27;1.83;;;1.20;;
7571;SDS011;3827;49.928;8.548;2023-09-19T09:51:59;4.13;;;1.38;;
7571;SDS011;3827;49.928;8.548;2023-09-19T09:54:27;2.67;;;1.15;;
7571;SDS011;3827;49.928;8.548;2023-09-19T09:57:01;4.30;;;1.30;;
7571;SDS011;3827;49.928;8.548;2023-09-19T09:59:47;2.20;;;1.45;;
7571;SDS011;3827;49.928;8.548;2023-09-19T10:02:16;2.67;;;1.27;;
7571;SDS011;3827;49.928;8.548;2023-09-19T10:04:49;3.55;;;1.50;;
7571;SDS011;3827;49.928;8.548;2023-09-19T10:07:34;4.32;;;1.30;;
7571;SDS011;3827;49.928;8.548;2023-09-19T10:10:06;3.60;;;1.15;;
7571;SDS011;3827;49.928;8.548;2023-09-19T10:12:42;1.77;;;1.23;;
7571;SDS011;3827;49.928;8.548;2023-09-19T10:15:14;2.50;;;1.50;;
7571;SDS011;3827;49.928;8.548;2023-09-19T10:17:45;2.10;;;1.20;;
7571;SDS011;3827;49.928;8.548;2023-09-19T10:20:13;2.35;;;1.15;;
7571;SDS011;3827;49.928;8.548;2023-09-19T10:22:58;2.53;;;1.30;;
7571;SDS011;3827;49.928;8.548;2023-09-19T10:25:26;2.42;;;1.15;;
7571;SDS011;3827;49.928;8.548;2023-09-19T10:27:55;2.70;;;1.35;;
7571;SDS011;3827;49.928;8.548;2023-09-19T10:30:26;2.15;;;1.15;;
7571;SDS011;3827;49.928;8.548;2023-09-19T10:32:57;3.25;;;1.33;;
7571;SDS011;3827;49.928;8.548;2023-09-19T10:35:27;2.37;;;1.20;;
7571;SDS011;3827;49.928;8.548;2023-09-19T10:37:54;3.03;;;1.30;;
7571;SDS011;3827;49.928;8.548;2023-09-19T10:40:24;2.20;;;1.15;;
7571;SDS011;3827;49.928;8.548;2023-09-19T10:42:57;1.33;;;1.20;;
7571;SDS011;3827;49.928;8.548;2023-09-19T10:45:32;3.97;;;1.70;;
7571;SDS011;3827;49.928;8.548;2023-09-19T10:48:00;3.70;;;1.30;;
7571;SDS011;3827;49.928;8.548;2023-09-19T10:50:30;3.00;;;1.30;;
7571;SDS011;3827;49.928;8.548;2023-09-19T10:53:02;4.10;;;1.40;;
7571;SDS011;3827;49.928;8.548;2023-09-19T10:55:33;2.22;;;1.30;;
7571;SDS011;3827;49.928;8.548;2023-09-19T10:58:01;2.13;;;1.33;;
7571;SDS011;3827;49.928;8.548;2023-09-19T11:00:51;2.30;;;1.20;;
7571;SDS011;3827;49.928;8.548;2023-09-19T11:03:19;2.65;;;1.10;;
7571;SDS011;3827;49.928;8.548;2023-09-19T11:06:08;2.10;;;1.17;;
7571;SDS011;3827;49.928;8.548;2023-09-19T11:08:51;3.63;;;1.42;;
7571;SDS011;3827;49.928;8.548;2023-09-19T11:11:40;2.60;;;1.27;;
7571;SDS011;3827;49.928;8.548;2023-09-19T11:14:13;2.33;;;1.30;;
7571;SDS011;3827;49.928;8.548;2023-09-19T11:20:24;5.30;;;1.20;;
7571;SDS011;3827;49.928;8.548;2023-09-19T11:23:23;2.67;;;1.20;;
7571;SDS011;3827;49.928;8.548;2023-09-19T11:25:53;2.38;;;1.08;;
7571;SDS011;3827;49.928;8.548;2023-09-19T11:28:29;2.50;;;1.40;;
7571;SDS011;3827;49.928;8.548;2023-09-19T11:30:57;3.55;;;1.42;;
7571;SDS011;3827;49.928;8.548;2023-09-19T11:33:25;4.30;;;1.20;;
7571;SDS011;3827;49.928;8.548;2023-09-19T11:35:59;2.47;;;1.50;;
7571;SDS011;3827;49.928;8.548;2023-09-19T11:41:37;2.90;;;1.13;;
7571;SDS011;3827;49.928;8.548;2023-09-19T11:47:04;1.90;;;1.10;;
7571;SDS011;3827;49.928;8.548;2023-09-19T11:49:32;2.67;;;1.15;;
7571;SDS011;3827;49.928;8.548;2023-09-19T11:52:01;2.83;;;1.30;;
7571;SDS011;3827;49.928;8.548;2023-09-19T11:54:31;2.55;;;1.10;;
7571;SDS011;3827;49.928;8.548;2023-09-19T11:56:58;1.97;;;1.20;;
7571;SDS011;3827;49.928;8.548;2023-09-19T11:59:26;1.30;;;0.90;;
7571;SDS011;3827;49.928;8.548;2023-09-19T12:01:54;2.23;;;1.30;;
7571;SDS011;3827;49.928;8.548;2023-09-19T12:04:36;3.20;;;1.00;;
7571;SDS011;3827;49.928;8.548;2023-09-19T12:07:05;2.80;;;1.20;;
7571;SDS011;3827;49.928;8.548;2023-09-19T12:09:38;3.65;;;1.30;;
7571;SDS011;3827;49.928;8.548;2023-09-19T12:12:09;1.88;;;1.17;;
7571;SDS011;3827;49.928;8.548;2023-09-19T12:14:37;2.00;;;1.02;;
7571;SDS011;3827;49.928;8.548;2023-09-19T12:17:07;1.45;;;1.25;;
7571;SDS011;3827;49.928;8.548;2023-09-19T12:19:34;1.65;;;1.00;;
7571;SDS011;3827;49.928;8.548;2023-09-19T12:22:01;2.72;;;1.10;;
7571;SDS011;3827;49.928;8.548;2023-09-19T12:24:31;2.15;;;1.05;;
7571;SDS011;3827;49.928;8.548;2023-09-19T12:27:01;1.92;;;1.05;;
7571;SDS011;3827;49.928;8.548;2023-09-19T12:29:31;2.63;;;1.27;;
7571;SDS011;3827;49.928;8.548;2023-09-19T12:31:59;1.90;;;1.05;;
7571;SDS011;3827;49.928;8.548;2023-09-19T12:34:29;2.42;;;1.10;;
7571;SDS011;3827;49.928;8.548;2023-09-19T12:37:06;3.03;;;1.27;;
7571;SDS011;3827;49.928;8.548;2023-09-19T12:39:47;2.72;;;1.10;;
7571;SDS011;3827;49.928;8.548;2023-09-19T12:42:16;2.03;;;1.20;;
7571;SDS011;3827;49.928;8.548;2023-09-19T12:44:44;2.10;;;1.20;;
7571;SDS011;3827;49.928;8.548;2023-09-19T12:47:13;2.90;;;1.30;;
7571;SDS011;3827;49.928;8.548;2023-09-19T12:52:42;1.30;;;1.05;;
7571;SDS011;3827;49.928;8.548;2023-09-19T12:55:26;2.88;;;1.05;;
7571;SDS011;3827;49.928;8.548;2023-09-19T12:58:08;2.03;;;1.13;;
7571;SDS011;3827;49.928;8.548;2023-09-19T13:00:38;3.40;;;1.40;;
7571;SDS011;3827;49.928;8.548;2023-09-19T13:03:09;2.72;;;0.85;;
7571;SDS011;3827;49.928;8.548;2023-09-19T13:05:53;2.63;;;1.20;;
7571;SDS011;3827;49.928;8.548;2023-09-19T13:08:22;1.70;;;1.17;;
7571;SDS011;3827;49.928;8.548;2023-09-19T13:11:08;2.60;;;1.20;;
7571;SDS011;3827;49.928;8.548;2023-09-19T13:13:38;2.40;;;0.82;;
7571;SDS011;3827;49.928;8.548;2023-09-19T13:16:06;2.83;;;1.00;;
7571;SDS011;3827;49.928;8.548;2023-09-19T13:18:43;2.77;;;1.17;;
7571;SDS011;3827;49.928;8.548;2023-09-19T13:21:11;2.42;;;0.90;;
7571;SDS011;3827;49.928;8.548;2023-09-19T13:23:49;2.63;;;1.08;;
7571;SDS011;3827;49.928;8.548;2023-09-19T13:26:18;2.92;;;1.10;;
7571;SDS011;3827;49.928;8.548;2023-09-19T13:28:45;2.50;;;1.13;;
7571;SDS011;3827;49.928;8.548;2023-09-19T13:31:13;1.77;;;1.10;;
7571;SDS011;3827;49.928;8.548;2023-09-19T13:33:42;2.13;;;1.00;;
7571;SDS011;3827;49.928;8.548;2023-09-19T13:36:10;1.38;;;0.82;;
7571;SDS011;3827;49.928;8.548;2023-09-19T13:38:38;2.28;;;1.30;;
7571;SDS011;3827;49.928;8.548;2023-09-19T13:41:05;2.33;;;1.13;;
7571;SDS011;3827;49.928;8.548;2023-09-19T13:43:33;1.90;;;1.00;;
7571;SDS011;3827;49.928;8.548;2023-09-19T13:46:00;1.42;;;1.00;;
7571;SDS011;3827;49.928;8.548;2023-09-19T13:48:28;1.10;;;0.90;;
7571;SDS011;3827;49.928;8.548;2023-09-19T13:50:55;1.52;;;0.90;;
7571;SDS011;3827;49.928;8.548;2023-09-19T13:53:21;2.30;;;1.02;;
7571;SDS011;3827;49.928;8.548;2023-09-19T13:55:48;1.67;;;0.85;;
7571;SDS011;3827;49.928;8.548;2023-09-19T13:58:16;1.20;;;0.80;;
7571;SDS011;3827;49.928;8.548;2023-09-19T14:00:44;2.42;;;1.00;;
7571;SDS011;3827;49.928;8.548;2023-09-19T14:03:11;1.60;;;0.90;;
7571;SDS011;3827;49.928;8.548;2023-09-19T14:05:37;2.75;;;1.30;;
7571;SDS011;3827;49.928;8.548;2023-09-19T14:08:04;1.52;;;1.20;;
7571;SDS011;3827;49.928;8.548;2023-09-19T14:10:31;1.23;;;0.98;;
7571;SDS011;3827;49.928;8.548;2023-09-19T14:12:59;1.70;;;1.00;;
7571;SDS011;3827;49.928;8.548;2023-09-19T14:15:27;1.92;;;1.23;;
7571;SDS011;3827;49.928;8.548;2023-09-19T14:17:57;1.00;;;0.90;;
7571;SDS011;3827;49.928;8.548;2023-09-19T14:20:25;1.17;;;1.05;;
7571;SDS011;3827;49.928;8.548;2023-09-19T14:22:52;4.75;;;1.33;;
7571;SDS011;3827;49.928;8.548;2023-09-19T14:25:20;1.70;;;1.20;;
7571;SDS011;3827;49.928;8.548;2023-09-19T14:27:47;2.22;;;1.00;;
7571;SDS011;3827;49.928;8.548;2023-09-19T14:30:13;1.40;;;0.90;;
7571;SDS011;3827;49.928;8.548;2023-09-19T14:32:40;1.20;;;0.98;;
7571;SDS011;3827;49.928;8.548;2023-09-19T14:35:09;1.50;;;1.00;;
7571;SDS011;3827;49.928;8.548;2023-09-19T14:37:36;1.10;;;1.00;;
7571;SDS011;3827;49.928;8.548;2023-09-19T14:40:05;2.63;;;1.00;;
7571;SDS011;3827;49.928;8.548;2023-09-19T14:42:34;1.97;;;1.10;;
7571;SDS011;3827;49.928;8.548;2023-09-19T14:45:03;1.95;;;1.10;;
7571;SDS011;3827;49.928;8.548;2023-09-19T14:47:31;1.23;;;1.10;;
7571;SDS011;3827;49.928;8.548;2023-09-19T14:49:59;1.30;;;1.00;;
7571;SDS011;3827;49.928;8.548;2023-09-19T14:52:27;2.15;;;1.05;;
7571;SDS011;3827;49.928;8.548;2023-09-19T14:54:54;1.83;;;1.00;;
7571;SDS011;3827;49.928;8.548;2023-09-19T14:57:21;1.23;;;0.85;;
7571;SDS011;3827;49.928;8.548;2023-09-19T14:59:49;1.40;;;0.90;;
7571;SDS011;3827;49.928;8.548;2023-09-19T15:02:16;1.38;;;1.13;;
7571;SDS011;3827;49.928;8.548;2023-09-19T15:04:44;1.15;;;1.05;;
7571;SDS011;3827;49.928;8.548;2023-09-19T15:07:11;1.17;;;0.80;;
7571;SDS011;3827;49.928;8.548;2023-09-19T15:09:41;1.50;;;1.00;;
7571;SDS011;3827;49.928;8.548;2023-09-19T15:12:08;1.00;;;0.90;;
7571;SDS011;3827;49.928;8.548;2023-09-19T15:14:36;1.85;;;1.00;;
7571;SDS011;3827;49.928;8.548;2023-09-19T15:17:03;2.03;;;1.10;;
7571;SDS011;3827;49.928;8.548;2023-09-19T15:19:30;1.30;;;1.02;;
7571;SDS011;3827;49.928;8.548;2023-09-19T15:21:57;2.07;;;0.83;;
7571;SDS011;3827;49.928;8.548;2023-09-19T15:24:25;1.35;;;0.90;;
7571;SDS011;3827;49.928;8.548;2023-09-19T15:26:53;1.30;;;0.90;;
7571;SDS011;3827;49.928;8.548;2023-09-19T15:29:21;1.88;;;0.85;;
7571;SDS011;3827;49.928;8.548;2023-09-19T15:31:48;3.83;;;1.00;;
7571;SDS011;3827;49.928;8.548;2023-09-19T15:34:15;1.00;;;0.87;;
7571;SDS011;3827;49.928;8.548;2023-09-19T15:36:42;1.25;;;0.75;;
7571;SDS011;3827;49.928;8.548;2023-09-19T15:39:09;1.05;;;0.82;;
7571;SDS011;3827;49.928;8.548;2023-09-19T15:41:38;1.70;;;0.90;;
7571;SDS011;3827;49.928;8.548;2023-09-19T15:44:11;1.00;;;0.90;;
7571;SDS011;3827;49.928;8.548;2023-09-19T15:46:40;1.55;;;0.70;;